sensor_id;sensor_type;location;lat;lon;timestamp;P1;durP1;ratioP1;P2;durP2;ratioP2
79414;SDS011;68864;44.972;19.612;2023-06-22T00:01:11;18.55;;;11.98;;
79414;SDS011;68864;44.972;19.612;2023-06-22T00:03:38;15.48;;;13.07;;
79414;SDS011;68864;44.972;19.612;2023-06-22T00:08:31;10.32;;;7.63;;
79414;SDS011;68864;44.972;19.612;2023-06-22T00:13:25;12.30;;;8.07;;
79414;SDS011;68864;44.972;19.612;2023-06-22T00:15:52;15.75;;;8.68;;
79414;SDS011;68864;44.972;19.612;2023-06-22T00:20:45;14.68;;;7.35;;
79414;SDS011;68864;44.972;19.612;2023-06-22T00:25:41;11.98;;;7.68;;
79414;SDS011;68864;44.972;19.612;2023-06-22T00:30:35;14.23;;;6.95;;
79414;SDS011;68864;44.972;19.612;2023-06-22T00:33:02;12.07;;;7.25;;
79414;SDS011;68864;44.972;19.612;2023-06-22T00:35:32;13.90;;;7.50;;
79414;SDS011;68864;44.972;19.612;2023-06-22T00:38:00;13.50;;;8.88;;
79414;SDS011;68864;44.972;19.612;2023-06-22T00:40:29;13.45;;;9.98;;
79414;SDS011;68864;44.972;19.612;2023-06-22T00:42:56;11.93;;;7.50;;
79414;SDS011;68864;44.972;19.612;2023-06-22T00:45:25;11.27;;;7.60;;
79414;SDS011;68864;44.972;19.612;2023-06-22T00:47:53;11.98;;;8.45;;
79414;SDS011;68864;44.972;19.612;2023-06-22T00:50:21;12.43;;;6.93;;
79414;SDS011;68864;44.972;19.612;2023-06-22T00:52:51;14.25;;;8.00;;
79414;SDS011;68864;44.972;19.612;2023-06-22T00:55:19;11.95;;;7.70;;
79414;SDS011;68864;44.972;19.612;2023-06-22T00:57:47;15.55;;;8.18;;
79414;SDS011;68864;44.972;19.612;2023-06-22T01:02:46;11.75;;;7.93;;
79414;SDS011;68864;44.972;19.612;2023-06-22T01:05:17;19.48;;;11.02;;
79414;SDS011;68864;44.972;19.612;2023-06-22T01:07:46;13.60;;;8.73;;
79414;SDS011;68864;44.972;19.612;2023-06-22T01:10:32;11.98;;;8.48;;
79414;SDS011;68864;44.972;19.612;2023-06-22T01:13:07;12.77;;;9.07;;
79414;SDS011;68864;44.972;19.612;2023-06-22T01:15:39;12.55;;;10.75;;
79414;SDS011;68864;44.972;19.612;2023-06-22T01:18:12;15.45;;;12.30;;
79414;SDS011;68864;44.972;19.612;2023-06-22T01:20:42;11.75;;;8.75;;
79414;SDS011;68864;44.972;19.612;2023-06-22T01:23:11;10.35;;;7.35;;
79414;SDS011;68864;44.972;19.612;2023-06-22T01:26:02;12.60;;;8.75;;
79414;SDS011;68864;44.972;19.612;2023-06-22T01:28:43;20.40;;;12.27;;
79414;SDS011;68864;44.972;19.612;2023-06-22T01:31:13;21.23;;;12.93;;
79414;SDS011;68864;44.972;19.612;2023-06-22T01:33:43;12.73;;;8.63;;
79414;SDS011;68864;44.972;19.612;2023-06-22T01:36:11;15.30;;;11.93;;
79414;SDS011;68864;44.972;19.612;2023-06-22T01:38:40;16.15;;;10.13;;
79414;SDS011;68864;44.972;19.612;2023-06-22T01:41:08;15.45;;;10.43;;
79414;SDS011;68864;44.972;19.612;2023-06-22T01:43:35;12.73;;;9.60;;
79414;SDS011;68864;44.972;19.612;2023-06-22T01:46:04;20.73;;;13.43;;
79414;SDS011;68864;44.972;19.612;2023-06-22T01:48:31;24.23;;;15.80;;
79414;SDS011;68864;44.972;19.612;2023-06-22T01:50:58;24.52;;;12.23;;
79414;SDS011;68864;44.972;19.612;2023-06-22T01:55:52;14.02;;;10.57;;
79414;SDS011;68864;44.972;19.612;2023-06-22T02:00:47;19.83;;;12.02;;
79414;SDS011;68864;44.972;19.612;2023-06-22T02:03:19;18.85;;;13.57;;
79414;SDS011;68864;44.972;19.612;2023-06-22T02:05:49;14.55;;;12.63;;
79414;SDS011;68864;44.972;19.612;2023-06-22T02:08:19;15.15;;;10.88;;
79414;SDS011;68864;44.972;19.612;2023-06-22T02:10:47;15.32;;;10.85;;
79414;SDS011;68864;44.972;19.612;2023-06-22T02:13:15;21.40;;;13.75;;
79414;SDS011;68864;44.972;19.612;2023-06-22T02:15:43;15.40;;;10.27;;
79414;SDS011;68864;44.972;19.612;2023-06-22T02:18:10;19.65;;;13.43;;
79414;SDS011;68864;44.972;19.612;2023-06-22T02:20:38;14.35;;;11.68;;
79414;SDS011;68864;44.972;19.612;2023-06-22T02:23:05;15.23;;;12.40;;
79414;SDS011;68864;44.972;19.612;2023-06-22T02:25:32;17.00;;;11.50;;
79414;SDS011;68864;44.972;19.612;2023-06-22T02:27:59;21.33;;;17.70;;
79414;SDS011;68864;44.972;19.612;2023-06-22T02:32:53;20.75;;;15.02;;
79414;SDS011;68864;44.972;19.612;2023-06-22T02:35:23;19.63;;;14.55;;
79414;SDS011;68864;44.972;19.612;2023-06-22T02:37:52;16.70;;;13.07;;
79414;SDS011;68864;44.972;19.612;2023-06-22T02:40:19;18.80;;;15.40;;
79414;SDS011;68864;44.972;19.612;2023-06-22T02:45:12;16.90;;;13.30;;
79414;SDS011;68864;44.972;19.612;2023-06-22T02:47:39;18.52;;;14.70;;
79414;SDS011;68864;44.972;19.612;2023-06-22T02:52:33;17.17;;;13.93;;
79414;SDS011;68864;44.972;19.612;2023-06-22T02:55:01;16.63;;;13.85;;
79414;SDS011;68864;44.972;19.612;2023-06-22T02:57:28;15.63;;;13.32;;
79414;SDS011;68864;44.972;19.612;2023-06-22T02:59:55;21.08;;;16.70;;
79414;SDS011;68864;44.972;19.612;2023-06-22T03:04:49;18.00;;;12.80;;
79414;SDS011;68864;44.972;19.612;2023-06-22T03:07:18;19.80;;;13.23;;
79414;SDS011;68864;44.972;19.612;2023-06-22T03:12:13;23.15;;;13.50;;
79414;SDS011;68864;44.972;19.612;2023-06-22T03:14:40;21.38;;;14.07;;
79414;SDS011;68864;44.972;19.612;2023-06-22T03:19:33;17.90;;;13.75;;
79414;SDS011;68864;44.972;19.612;2023-06-22T03:24:27;18.15;;;12.95;;
79414;SDS011;68864;44.972;19.612;2023-06-22T03:26:54;18.38;;;14.45;;
79414;SDS011;68864;44.972;19.612;2023-06-22T03:29:23;18.42;;;13.88;;
79414;SDS011;68864;44.972;19.612;2023-06-22T03:31:50;17.30;;;14.30;;
79414;SDS011;68864;44.972;19.612;2023-06-22T03:34:17;20.95;;;17.10;;
79414;SDS011;68864;44.972;19.612;2023-06-22T03:36:44;27.52;;;21.73;;
79414;SDS011;68864;44.972;19.612;2023-06-22T03:41:38;20.75;;;17.77;;
79414;SDS011;68864;44.972;19.612;2023-06-22T03:44:05;20.77;;;14.23;;
79414;SDS011;68864;44.972;19.612;2023-06-22T03:46:33;24.50;;;16.75;;
79414;SDS011;68864;44.972;19.612;2023-06-22T03:48:59;23.83;;;16.35;;
79414;SDS011;68864;44.972;19.612;2023-06-22T03:51:28;21.20;;;14.80;;
79414;SDS011;68864;44.972;19.612;2023-06-22T03:56:21;17.98;;;13.85;;
79414;SDS011;68864;44.972;19.612;2023-06-22T03:58:48;21.90;;;17.10;;
79414;SDS011;68864;44.972;19.612;2023-06-22T04:01:14;24.95;;;17.95;;
79414;SDS011;68864;44.972;19.612;2023-06-22T04:03:44;21.02;;;15.48;;
79414;SDS011;68864;44.972;19.612;2023-06-22T04:06:13;21.15;;;16.40;;
79414;SDS011;68864;44.972;19.612;2023-06-22T04:08:40;24.80;;;17.65;;
79414;SDS011;68864;44.972;19.612;2023-06-22T04:11:07;26.98;;;20.25;;
79414;SDS011;68864;44.972;19.612;2023-06-22T04:13:34;27.33;;;21.67;;
79414;SDS011;68864;44.972;19.612;2023-06-22T04:16:00;27.95;;;19.38;;
79414;SDS011;68864;44.972;19.612;2023-06-22T04:20:55;21.17;;;14.77;;
79414;SDS011;68864;44.972;19.612;2023-06-22T04:23:22;26.35;;;19.67;;
79414;SDS011;68864;44.972;19.612;2023-06-22T04:25:49;32.38;;;17.75;;
79414;SDS011;68864;44.972;19.612;2023-06-22T04:28:16;22.38;;;15.75;;
79414;SDS011;68864;44.972;19.612;2023-06-22T04:30:43;22.08;;;19.77;;
79414;SDS011;68864;44.972;19.612;2023-06-22T04:33:12;22.27;;;15.10;;
79414;SDS011;68864;44.972;19.612;2023-06-22T04:35:39;24.42;;;18.55;;
79414;SDS011;68864;44.972;19.612;2023-06-22T04:38:08;27.63;;;14.20;;
79414;SDS011;68864;44.972;19.612;2023-06-22T04:40:38;24.60;;;14.88;;
79414;SDS011;68864;44.972;19.612;2023-06-22T04:43:04;25.00;;;17.98;;
79414;SDS011;68864;44.972;19.612;2023-06-22T04:47:58;23.63;;;20.40;;
79414;SDS011;68864;44.972;19.612;2023-06-22T04:52:51;21.35;;;14.88;;
79414;SDS011;68864;44.972;19.612;2023-06-22T04:55:19;31.67;;;21.48;;
79414;SDS011;68864;44.972;19.612;2023-06-22T04:57:46;24.27;;;19.00;;
79414;SDS011;68864;44.972;19.612;2023-06-22T05:00:14;28.50;;;18.92;;
79414;SDS011;68864;44.972;19.612;2023-06-22T05:02:42;30.30;;;23.83;;
79414;SDS011;68864;44.972;19.612;2023-06-22T05:05:09;27.58;;;19.02;;
79414;SDS011;68864;44.972;19.612;2023-06-22T05:07:38;36.42;;;23.13;;
79414;SDS011;68864;44.972;19.612;2023-06-22T05:10:08;34.38;;;22.65;;
79414;SDS011;68864;44.972;19.612;2023-06-22T05:12:37;34.75;;;20.80;;
79414;SDS011;68864;44.972;19.612;2023-06-22T05:15:04;27.80;;;24.08;;
79414;SDS011;68864;44.972;19.612;2023-06-22T05:17:31;24.65;;;20.38;;
79414;SDS011;68864;44.972;19.612;2023-06-22T05:22:25;27.38;;;18.90;;
79414;SDS011;68864;44.972;19.612;2023-06-22T05:27:18;31.85;;;22.33;;
79414;SDS011;68864;44.972;19.612;2023-06-22T05:32:13;29.60;;;22.77;;
79414;SDS011;68864;44.972;19.612;2023-06-22T05:34:39;28.27;;;23.10;;
79414;SDS011;68864;44.972;19.612;2023-06-22T05:39:34;30.15;;;22.35;;
79414;SDS011;68864;44.972;19.612;2023-06-22T05:42:03;27.92;;;21.90;;
79414;SDS011;68864;44.972;19.612;2023-06-22T05:44:31;27.52;;;21.60;;
79414;SDS011;68864;44.972;19.612;2023-06-22T05:47:00;32.17;;;23.15;;
79414;SDS011;68864;44.972;19.612;2023-06-22T05:49:26;31.52;;;25.75;;
79414;SDS011;68864;44.972;19.612;2023-06-22T05:51:57;26.45;;;21.60;;
79414;SDS011;68864;44.972;19.612;2023-06-22T05:54:24;30.48;;;25.02;;
79414;SDS011;68864;44.972;19.612;2023-06-22T05:56:51;26.23;;;20.70;;
79414;SDS011;68864;44.972;19.612;2023-06-22T06:01:45;25.95;;;20.40;;
79414;SDS011;68864;44.972;19.612;2023-06-22T06:04:16;31.10;;;19.85;;
79414;SDS011;68864;44.972;19.612;2023-06-22T06:06:43;35.20;;;27.67;;
79414;SDS011;68864;44.972;19.612;2023-06-22T06:09:10;27.45;;;24.25;;
79414;SDS011;68864;44.972;19.612;2023-06-22T06:11:37;33.08;;;22.42;;
79414;SDS011;68864;44.972;19.612;2023-06-22T06:14:04;35.50;;;29.00;;
79414;SDS011;68864;44.972;19.612;2023-06-22T06:16:31;27.10;;;21.30;;
79414;SDS011;68864;44.972;19.612;2023-06-22T06:18:58;24.02;;;20.95;;
79414;SDS011;68864;44.972;19.612;2023-06-22T06:23:53;27.10;;;17.75;;
79414;SDS011;68864;44.972;19.612;2023-06-22T06:28:55;29.92;;;20.95;;
79414;SDS011;68864;44.972;19.612;2023-06-22T06:31:22;33.03;;;21.48;;
79414;SDS011;68864;44.972;19.612;2023-06-22T06:36:15;27.10;;;23.60;;
79414;SDS011;68864;44.972;19.612;2023-06-22T06:41:12;21.50;;;16.42;;
79414;SDS011;68864;44.972;19.612;2023-06-22T06:46:05;21.50;;;17.15;;
79414;SDS011;68864;44.972;19.612;2023-06-22T06:50:58;24.27;;;17.80;;
79414;SDS011;68864;44.972;19.612;2023-06-22T06:55:53;18.58;;;15.27;;
79414;SDS011;68864;44.972;19.612;2023-06-22T06:58:20;19.50;;;15.15;;
79414;SDS011;68864;44.972;19.612;2023-06-22T07:00:48;20.77;;;18.10;;
79414;SDS011;68864;44.972;19.612;2023-06-22T07:03:14;20.88;;;16.83;;
79414;SDS011;68864;44.972;19.612;2023-06-22T07:05:41;21.52;;;17.42;;
79414;SDS011;68864;44.972;19.612;2023-06-22T07:08:08;20.85;;;17.02;;
79414;SDS011;68864;44.972;19.612;2023-06-22T07:10:35;18.45;;;15.00;;
79414;SDS011;68864;44.972;19.612;2023-06-22T07:13:03;21.38;;;17.40;;
79414;SDS011;68864;44.972;19.612;2023-06-22T07:15:30;24.58;;;18.98;;
79414;SDS011;68864;44.972;19.612;2023-06-22T07:17:57;21.77;;;17.83;;
79414;SDS011;68864;44.972;19.612;2023-06-22T07:22:51;22.70;;;15.63;;
79414;SDS011;68864;44.972;19.612;2023-06-22T07:25:18;19.45;;;15.40;;
79414;SDS011;68864;44.972;19.612;2023-06-22T07:27:45;18.92;;;14.93;;
79414;SDS011;68864;44.972;19.612;2023-06-22T07:30:14;18.38;;;16.42;;
79414;SDS011;68864;44.972;19.612;2023-06-22T07:32:41;18.20;;;16.25;;
79414;SDS011;68864;44.972;19.612;2023-06-22T07:35:08;21.30;;;15.23;;
79414;SDS011;68864;44.972;19.612;2023-06-22T07:37:35;23.17;;;16.23;;
79414;SDS011;68864;44.972;19.612;2023-06-22T07:40:02;16.45;;;13.10;;
79414;SDS011;68864;44.972;19.612;2023-06-22T07:42:31;14.93;;;12.95;;
79414;SDS011;68864;44.972;19.612;2023-06-22T07:44:59;17.02;;;13.20;;
79414;SDS011;68864;44.972;19.612;2023-06-22T07:47:28;17.77;;;12.75;;
79414;SDS011;68864;44.972;19.612;2023-06-22T07:49:54;19.00;;;11.80;;
79414;SDS011;68864;44.972;19.612;2023-06-22T07:52:23;17.13;;;12.77;;
79414;SDS011;68864;44.972;19.612;2023-06-22T07:54:51;17.15;;;14.10;;
79414;SDS011;68864;44.972;19.612;2023-06-22T07:57:17;17.50;;;12.85;;
79414;SDS011;68864;44.972;19.612;2023-06-22T07:59:44;16.17;;;12.32;;
79414;SDS011;68864;44.972;19.612;2023-06-22T08:02:11;16.45;;;13.80;;
79414;SDS011;68864;44.972;19.612;2023-06-22T08:04:40;14.85;;;12.32;;
79414;SDS011;68864;44.972;19.612;2023-06-22T08:07:07;15.45;;;12.30;;
79414;SDS011;68864;44.972;19.612;2023-06-22T08:09:34;20.20;;;14.40;;
79414;SDS011;68864;44.972;19.612;2023-06-22T08:12:02;19.80;;;12.48;;
79414;SDS011;68864;44.972;19.612;2023-06-22T08:14:29;19.23;;;17.23;;
79414;SDS011;68864;44.972;19.612;2023-06-22T08:16:56;15.23;;;12.68;;
79414;SDS011;68864;44.972;19.612;2023-06-22T08:19:23;15.50;;;13.82;;
79414;SDS011;68864;44.972;19.612;2023-06-22T08:21:51;18.45;;;16.45;;
79414;SDS011;68864;44.972;19.612;2023-06-22T08:24:18;23.73;;;15.52;;
79414;SDS011;68864;44.972;19.612;2023-06-22T08:26:44;16.85;;;13.63;;
79414;SDS011;68864;44.972;19.612;2023-06-22T08:29:11;13.50;;;12.02;;
79414;SDS011;68864;44.972;19.612;2023-06-22T08:31:38;21.52;;;19.27;;
79414;SDS011;68864;44.972;19.612;2023-06-22T08:34:04;16.15;;;14.30;;
79414;SDS011;68864;44.972;19.612;2023-06-22T08:36:31;23.33;;;14.65;;
79414;SDS011;68864;44.972;19.612;2023-06-22T08:39:07;19.33;;;14.93;;
79414;SDS011;68864;44.972;19.612;2023-06-22T08:41:34;18.27;;;13.45;;
79414;SDS011;68864;44.972;19.612;2023-06-22T08:44:01;16.88;;;12.95;;
79414;SDS011;68864;44.972;19.612;2023-06-22T08:46:29;18.33;;;13.30;;
79414;SDS011;68864;44.972;19.612;2023-06-22T08:48:58;21.15;;;14.57;;
79414;SDS011;68864;44.972;19.612;2023-06-22T08:51:26;15.65;;;13.05;;
79414;SDS011;68864;44.972;19.612;2023-06-22T08:53:53;18.08;;;11.88;;
79414;SDS011;68864;44.972;19.612;2023-06-22T08:56:32;19.85;;;12.77;;
79414;SDS011;68864;44.972;19.612;2023-06-22T08:58:59;13.43;;;11.77;;
79414;SDS011;68864;44.972;19.612;2023-06-22T09:01:25;15.18;;;11.05;;
79414;SDS011;68864;44.972;19.612;2023-06-22T09:03:52;18.13;;;13.43;;
79414;SDS011;68864;44.972;19.612;2023-06-22T09:06:22;15.70;;;12.13;;
79414;SDS011;68864;44.972;19.612;2023-06-22T09:08:49;16.25;;;12.98;;
79414;SDS011;68864;44.972;19.612;2023-06-22T09:11:16;19.58;;;13.15;;
79414;SDS011;68864;44.972;19.612;2023-06-22T09:13:44;17.15;;;12.55;;
79414;SDS011;68864;44.972;19.612;2023-06-22T09:16:12;14.85;;;13.10;;
79414;SDS011;68864;44.972;19.612;2023-06-22T09:18:38;16.83;;;11.63;;
79414;SDS011;68864;44.972;19.612;2023-06-22T09:21:06;16.13;;;11.13;;
79414;SDS011;68864;44.972;19.612;2023-06-22T09:23:33;12.93;;;11.23;;
79414;SDS011;68864;44.972;19.612;2023-06-22T09:26:00;15.95;;;13.95;;
79414;SDS011;68864;44.972;19.612;2023-06-22T09:28:26;19.50;;;17.38;;
79414;SDS011;68864;44.972;19.612;2023-06-22T09:30:55;15.98;;;13.35;;
79414;SDS011;68864;44.972;19.612;2023-06-22T09:33:23;19.08;;;13.10;;
79414;SDS011;68864;44.972;19.612;2023-06-22T09:35:50;15.73;;;12.18;;
79414;SDS011;68864;44.972;19.612;2023-06-22T09:38:16;17.80;;;11.85;;
79414;SDS011;68864;44.972;19.612;2023-06-22T09:40:43;23.45;;;17.80;;
79414;SDS011;68864;44.972;19.612;2023-06-22T09:43:10;13.02;;;10.55;;
79414;SDS011;68864;44.972;19.612;2023-06-22T09:45:37;14.20;;;11.18;;
79414;SDS011;68864;44.972;19.612;2023-06-22T09:48:06;14.95;;;12.13;;
79414;SDS011;68864;44.972;19.612;2023-06-22T09:50:33;17.90;;;14.75;;
79414;SDS011;68864;44.972;19.612;2023-06-22T09:52:59;16.58;;;12.73;;
79414;SDS011;68864;44.972;19.612;2023-06-22T09:55:26;13.82;;;11.10;;
79414;SDS011;68864;44.972;19.612;2023-06-22T09:57:53;12.98;;;10.13;;
79414;SDS011;68864;44.972;19.612;2023-06-22T10:00:20;14.23;;;12.73;;
79414;SDS011;68864;44.972;19.612;2023-06-22T10:02:47;22.02;;;16.95;;
79414;SDS011;68864;44.972;19.612;2023-06-22T10:05:17;13.23;;;11.00;;
79414;SDS011;68864;44.972;19.612;2023-06-22T10:07:43;12.85;;;11.23;;
79414;SDS011;68864;44.972;19.612;2023-06-22T10:10:10;20.17;;;18.08;;
79414;SDS011;68864;44.972;19.612;2023-06-22T10:12:41;14.52;;;12.90;;
79414;SDS011;68864;44.972;19.612;2023-06-22T10:15:09;19.27;;;12.02;;
79414;SDS011;68864;44.972;19.612;2023-06-22T10:17:36;12.35;;;10.10;;
79414;SDS011;68864;44.972;19.612;2023-06-22T10:20:03;17.92;;;13.93;;
79414;SDS011;68864;44.972;19.612;2023-06-22T10:22:37;14.10;;;12.50;;
79414;SDS011;68864;44.972;19.612;2023-06-22T10:25:05;14.82;;;13.38;;
79414;SDS011;68864;44.972;19.612;2023-06-22T10:27:33;16.80;;;14.25;;
79414;SDS011;68864;44.972;19.612;2023-06-22T10:29:59;16.73;;;14.80;;
79414;SDS011;68864;44.972;19.612;2023-06-22T10:32:26;17.27;;;14.57;;
79414;SDS011;68864;44.972;19.612;2023-06-22T10:34:54;15.27;;;13.68;;
79414;SDS011;68864;44.972;19.612;2023-06-22T10:37:21;15.60;;;13.23;;
79414;SDS011;68864;44.972;19.612;2023-06-22T10:39:49;15.98;;;14.35;;
79414;SDS011;68864;44.972;19.612;2023-06-22T10:42:16;18.48;;;15.13;;
79414;SDS011;68864;44.972;19.612;2023-06-22T10:44:43;16.70;;;13.80;;
79414;SDS011;68864;44.972;19.612;2023-06-22T10:47:10;18.17;;;14.18;;
79414;SDS011;68864;44.972;19.612;2023-06-22T10:49:37;21.27;;;19.27;;
79414;SDS011;68864;44.972;19.612;2023-06-22T10:52:05;19.58;;;17.13;;
79414;SDS011;68864;44.972;19.612;2023-06-22T10:54:32;22.10;;;19.75;;
79414;SDS011;68864;44.972;19.612;2023-06-22T10:57:01;19.98;;;17.98;;
79414;SDS011;68864;44.972;19.612;2023-06-22T10:59:28;23.73;;;20.75;;
79414;SDS011;68864;44.972;19.612;2023-06-22T11:01:55;20.23;;;17.77;;
79414;SDS011;68864;44.972;19.612;2023-06-22T11:04:22;21.40;;;18.65;;
79414;SDS011;68864;44.972;19.612;2023-06-22T11:06:48;19.65;;;17.80;;
79414;SDS011;68864;44.972;19.612;2023-06-22T11:09:15;21.13;;;18.90;;
79414;SDS011;68864;44.972;19.612;2023-06-22T11:11:45;21.73;;;19.63;;
79414;SDS011;68864;44.972;19.612;2023-06-22T11:14:13;19.20;;;17.15;;
79414;SDS011;68864;44.972;19.612;2023-06-22T11:16:40;18.50;;;16.67;;
79414;SDS011;68864;44.972;19.612;2023-06-22T11:19:07;19.30;;;17.25;;
79414;SDS011;68864;44.972;19.612;2023-06-22T11:21:33;26.38;;;20.95;;
79414;SDS011;68864;44.972;19.612;2023-06-22T11:24:00;22.30;;;20.00;;
79414;SDS011;68864;44.972;19.612;2023-06-22T11:26:27;24.42;;;20.75;;
79414;SDS011;68864;44.972;19.612;2023-06-22T11:28:55;21.17;;;18.08;;
79414;SDS011;68864;44.972;19.612;2023-06-22T11:31:23;22.10;;;17.17;;
79414;SDS011;68864;44.972;19.612;2023-06-22T11:33:50;20.15;;;17.95;;
79414;SDS011;68864;44.972;19.612;2023-06-22T11:36:17;18.77;;;16.83;;
79414;SDS011;68864;44.972;19.612;2023-06-22T11:38:44;20.13;;;16.23;;
79414;SDS011;68864;44.972;19.612;2023-06-22T11:41:10;22.30;;;20.17;;
79414;SDS011;68864;44.972;19.612;2023-06-22T11:43:37;17.58;;;15.52;;
79414;SDS011;68864;44.972;19.612;2023-06-22T11:46:04;22.73;;;16.38;;
79414;SDS011;68864;44.972;19.612;2023-06-22T11:48:32;14.15;;;12.18;;
79414;SDS011;68864;44.972;19.612;2023-06-22T11:50:59;15.73;;;14.10;;
79414;SDS011;68864;44.972;19.612;2023-06-22T11:53:27;14.77;;;13.27;;
79414;SDS011;68864;44.972;19.612;2023-06-22T11:55:54;13.70;;;12.30;;
79414;SDS011;68864;44.972;19.612;2023-06-22T11:58:22;15.75;;;11.70;;
79414;SDS011;68864;44.972;19.612;2023-06-22T12:00:49;13.18;;;10.40;;
79414;SDS011;68864;44.972;19.612;2023-06-22T12:03:17;14.13;;;11.95;;
79414;SDS011;68864;44.972;19.612;2023-06-22T12:05:45;13.57;;;10.45;;
79414;SDS011;68864;44.972;19.612;2023-06-22T12:08:12;14.70;;;10.93;;
79414;SDS011;68864;44.972;19.612;2023-06-22T12:10:39;13.00;;;10.40;;
79414;SDS011;68864;44.972;19.612;2023-06-22T12:13:06;14.73;;;10.50;;
79414;SDS011;68864;44.972;19.612;2023-06-22T12:15:32;11.50;;;9.05;;
79414;SDS011;68864;44.972;19.612;2023-06-22T12:17:59;13.23;;;10.60;;
79414;SDS011;68864;44.972;19.612;2023-06-22T12:20:27;11.63;;;10.43;;
79414;SDS011;68864;44.972;19.612;2023-06-22T12:22:55;14.38;;;11.68;;
79414;SDS011;68864;44.972;19.612;2023-06-22T12:25:23;13.07;;;10.02;;
79414;SDS011;68864;44.972;19.612;2023-06-22T12:27:50;11.00;;;8.95;;
79414;SDS011;68864;44.972;19.612;2023-06-22T12:30:17;12.82;;;10.90;;
79414;SDS011;68864;44.972;19.612;2023-06-22T12:32:43;14.23;;;9.25;;
79414;SDS011;68864;44.972;19.612;2023-06-22T12:35:10;13.45;;;10.75;;
79414;SDS011;68864;44.972;19.612;2023-06-22T12:37:39;11.93;;;10.00;;
79414;SDS011;68864;44.972;19.612;2023-06-22T12:40:08;11.75;;;9.55;;
79414;SDS011;68864;44.972;19.612;2023-06-22T12:42:36;15.00;;;13.32;;
79414;SDS011;68864;44.972;19.612;2023-06-22T12:45:03;13.13;;;10.25;;
79414;SDS011;68864;44.972;19.612;2023-06-22T12:47:30;14.25;;;9.40;;
79414;SDS011;68864;44.972;19.612;2023-06-22T12:49:57;12.52;;;10.30;;
79414;SDS011;68864;44.972;19.612;2023-06-22T12:52:24;17.48;;;13.50;;
79414;SDS011;68864;44.972;19.612;2023-06-22T12:54:51;17.23;;;10.85;;
79414;SDS011;68864;44.972;19.612;2023-06-22T12:57:20;12.43;;;10.02;;
79414;SDS011;68864;44.972;19.612;2023-06-22T12:59:47;15.30;;;11.63;;
79414;SDS011;68864;44.972;19.612;2023-06-22T13:02:14;13.40;;;11.70;;
79414;SDS011;68864;44.972;19.612;2023-06-22T13:04:41;15.25;;;12.85;;
79414;SDS011;68864;44.972;19.612;2023-06-22T13:07:08;12.90;;;9.73;;
79414;SDS011;68864;44.972;19.612;2023-06-22T13:09:35;15.15;;;12.27;;
79414;SDS011;68864;44.972;19.612;2023-06-22T13:12:03;12.25;;;10.65;;
79414;SDS011;68864;44.972;19.612;2023-06-22T13:14:31;13.80;;;9.48;;
79414;SDS011;68864;44.972;19.612;2023-06-22T13:16:58;16.88;;;10.43;;
79414;SDS011;68864;44.972;19.612;2023-06-22T13:19:24;12.75;;;10.00;;
79414;SDS011;68864;44.972;19.612;2023-06-22T13:21:54;15.27;;;11.65;;
79414;SDS011;68864;44.972;19.612;2023-06-22T13:24:20;12.93;;;9.68;;
79414;SDS011;68864;44.972;19.612;2023-06-22T13:26:47;15.45;;;10.77;;
79414;SDS011;68864;44.972;19.612;2023-06-22T13:29:14;14.80;;;10.68;;
79414;SDS011;68864;44.972;19.612;2023-06-22T13:31:42;13.00;;;11.60;;
79414;SDS011;68864;44.972;19.612;2023-06-22T13:34:09;14.80;;;12.18;;
79414;SDS011;68864;44.972;19.612;2023-06-22T13:36:35;19.00;;;11.55;;
79414;SDS011;68864;44.972;19.612;2023-06-22T13:39:02;12.40;;;9.65;;
79414;SDS011;68864;44.972;19.612;2023-06-22T13:41:29;13.93;;;12.52;;
79414;SDS011;68864;44.972;19.612;2023-06-22T13:43:57;14.48;;;12.95;;
79414;SDS011;68864;44.972;19.612;2023-06-22T13:46:23;12.50;;;9.43;;
79414;SDS011;68864;44.972;19.612;2023-06-22T13:48:52;12.18;;;9.90;;
79414;SDS011;68864;44.972;19.612;2023-06-22T13:51:18;13.60;;;9.70;;
79414;SDS011;68864;44.972;19.612;2023-06-22T13:53:45;14.27;;;12.80;;
79414;SDS011;68864;44.972;19.612;2023-06-22T13:56:12;11.38;;;8.40;;
79414;SDS011;68864;44.972;19.612;2023-06-22T13:58:39;16.15;;;14.57;;
79414;SDS011;68864;44.972;19.612;2023-06-22T14:01:05;18.02;;;11.30;;
79414;SDS011;68864;44.972;19.612;2023-06-22T14:03:32;15.13;;;11.23;;
79414;SDS011;68864;44.972;19.612;2023-06-22T14:06:00;14.68;;;11.27;;
79414;SDS011;68864;44.972;19.612;2023-06-22T14:08:27;15.75;;;10.40;;
79414;SDS011;68864;44.972;19.612;2023-06-22T14:10:53;16.63;;;12.38;;
79414;SDS011;68864;44.972;19.612;2023-06-22T14:13:20;13.77;;;11.25;;
79414;SDS011;68864;44.972;19.612;2023-06-22T14:15:47;19.65;;;14.95;;
79414;SDS011;68864;44.972;19.612;2023-06-22T14:18:14;12.95;;;10.45;;
79414;SDS011;68864;44.972;19.612;2023-06-22T14:20:41;11.18;;;8.93;;
79414;SDS011;68864;44.972;19.612;2023-06-22T14:23:09;17.60;;;11.20;;
79414;SDS011;68864;44.972;19.612;2023-06-22T14:25:36;18.13;;;14.82;;
79414;SDS011;68864;44.972;19.612;2023-06-22T14:28:03;18.00;;;11.27;;
79414;SDS011;68864;44.972;19.612;2023-06-22T14:30:29;16.27;;;8.93;;
79414;SDS011;68864;44.972;19.612;2023-06-22T14:32:56;14.82;;;13.38;;
79414;SDS011;68864;44.972;19.612;2023-06-22T14:35:23;17.73;;;13.20;;
79414;SDS011;68864;44.972;19.612;2023-06-22T14:37:50;14.13;;;11.88;;
79414;SDS011;68864;44.972;19.612;2023-06-22T14:40:18;12.52;;;9.05;;
79414;SDS011;68864;44.972;19.612;2023-06-22T14:42:45;13.73;;;10.23;;
79414;SDS011;68864;44.972;19.612;2023-06-22T14:45:12;13.45;;;10.07;;
79414;SDS011;68864;44.972;19.612;2023-06-22T14:47:39;15.68;;;10.68;;
79414;SDS011;68864;44.972;19.612;2023-06-22T14:50:06;15.82;;;12.55;;
79414;SDS011;68864;44.972;19.612;2023-06-22T14:52:33;14.77;;;11.18;;
79414;SDS011;68864;44.972;19.612;2023-06-22T14:55:00;14.90;;;11.77;;
79414;SDS011;68864;44.972;19.612;2023-06-22T14:57:28;18.20;;;11.70;;
79414;SDS011;68864;44.972;19.612;2023-06-22T14:59:55;13.93;;;9.88;;
79414;SDS011;68864;44.972;19.612;2023-06-22T15:02:22;12.10;;;9.77;;
79414;SDS011;68864;44.972;19.612;2023-06-22T15:04:49;16.27;;;10.68;;
79414;SDS011;68864;44.972;19.612;2023-06-22T15:07:17;11.68;;;9.93;;
79414;SDS011;68864;44.972;19.612;2023-06-22T15:09:44;12.82;;;10.10;;
79414;SDS011;68864;44.972;19.612;2023-06-22T15:12:11;12.95;;;9.68;;
79414;SDS011;68864;44.972;19.612;2023-06-22T15:14:40;13.77;;;12.40;;
79414;SDS011;68864;44.972;19.612;2023-06-22T15:17:07;23.63;;;12.48;;
79414;SDS011;68864;44.972;19.612;2023-06-22T15:19:35;16.58;;;11.43;;
79414;SDS011;68864;44.972;19.612;2023-06-22T15:22:03;14.55;;;10.48;;
79414;SDS011;68864;44.972;19.612;2023-06-22T15:24:30;16.15;;;14.13;;
79414;SDS011;68864;44.972;19.612;2023-06-22T15:26:57;16.80;;;15.23;;
79414;SDS011;68864;44.972;19.612;2023-06-22T15:29:24;15.05;;;10.48;;
79414;SDS011;68864;44.972;19.612;2023-06-22T15:31:52;15.70;;;12.60;;
79414;SDS011;68864;44.972;19.612;2023-06-22T15:34:19;15.40;;;11.40;;